sensor_id;sensor_type;location;lat;lon;timestamp;P1;durP1;ratioP1;P2;durP2;ratioP2
52586;SDS011;38480;52.724;6.436;2024-03-07T00:02:17;138.13;;;49.53;;
52586;SDS011;38480;52.724;6.436;2024-03-07T00:04:43;133.67;;;52.10;;
52586;SDS011;38480;52.724;6.436;2024-03-07T00:07:09;144.17;;;52.93;;
52586;SDS011;38480;52.724;6.436;2024-03-07T00:09:35;153.27;;;51.27;;
52586;SDS011;38480;52.724;6.436;2024-03-07T00:12:02;161.80;;;53.00;;
52586;SDS011;38480;52.724;6.436;2024-03-07T00:14:28;153.53;;;51.77;;
52586;SDS011;38480;52.724;6.436;2024-03-07T00:16:54;149.70;;;53.40;;
52586;SDS011;38480;52.724;6.436;2024-03-07T00:19:20;159.93;;;55.33;;
52586;SDS011;38480;52.724;6.436;2024-03-07T00:21:47;162.80;;;53.10;;
52586;SDS011;38480;52.724;6.436;2024-03-07T00:24:13;156.93;;;55.47;;
52586;SDS011;38480;52.724;6.436;2024-03-07T00:26:39;167.77;;;57.10;;
52586;SDS011;38480;52.724;6.436;2024-03-07T00:29:06;188.53;;;58.63;;
52586;SDS011;38480;52.724;6.436;2024-03-07T00:31:32;158.27;;;58.17;;
52586;SDS011;38480;52.724;6.436;2024-03-07T00:33:58;161.67;;;56.07;;
52586;SDS011;38480;52.724;6.436;2024-03-07T00:36:24;169.33;;;54.73;;
52586;SDS011;38480;52.724;6.436;2024-03-07T00:38:51;162.13;;;56.83;;
52586;SDS011;38480;52.724;6.436;2024-03-07T00:41:19;208.67;;;61.40;;
52586;SDS011;38480;52.724;6.436;2024-03-07T00:43:45;157.03;;;54.83;;
52586;SDS011;38480;52.724;6.436;2024-03-07T00:46:11;163.07;;;54.37;;
52586;SDS011;38480;52.724;6.436;2024-03-07T00:48:37;139.83;;;50.80;;
52586;SDS011;38480;52.724;6.436;2024-03-07T00:51:03;175.13;;;57.20;;
52586;SDS011;38480;52.724;6.436;2024-03-07T00:53:30;152.27;;;54.87;;
52586;SDS011;38480;52.724;6.436;2024-03-07T00:55:56;221.80;;;63.50;;
52586;SDS011;38480;52.724;6.436;2024-03-07T00:58:22;168.37;;;56.87;;
52586;SDS011;38480;52.724;6.436;2024-03-07T01:00:48;160.27;;;56.30;;
52586;SDS011;38480;52.724;6.436;2024-03-07T01:03:15;179.13;;;58.80;;
52586;SDS011;38480;52.724;6.436;2024-03-07T01:05:42;167.93;;;58.03;;
52586;SDS011;38480;52.724;6.436;2024-03-07T01:08:09;161.23;;;54.00;;
52586;SDS011;38480;52.724;6.436;2024-03-07T01:10:35;211.17;;;63.40;;
52586;SDS011;38480;52.724;6.436;2024-03-07T01:13:01;165.40;;;57.53;;
52586;SDS011;38480;52.724;6.436;2024-03-07T01:15:31;155.67;;;55.50;;
52586;SDS011;38480;52.724;6.436;2024-03-07T01:17:57;154.03;;;55.67;;
52586;SDS011;38480;52.724;6.436;2024-03-07T01:20:23;99.10;;;45.77;;
52586;SDS011;38480;52.724;6.436;2024-03-07T01:22:50;122.07;;;48.73;;
52586;SDS011;38480;52.724;6.436;2024-03-07T01:25:16;104.13;;;44.30;;
52586;SDS011;38480;52.724;6.436;2024-03-07T01:27:42;129.20;;;51.57;;
52586;SDS011;38480;52.724;6.436;2024-03-07T01:30:09;115.37;;;46.77;;
52586;SDS011;38480;52.724;6.436;2024-03-07T01:32:35;124.93;;;51.20;;
52586;SDS011;38480;52.724;6.436;2024-03-07T01:35:01;118.73;;;49.77;;
52586;SDS011;38480;52.724;6.436;2024-03-07T01:37:27;130.47;;;51.90;;
52586;SDS011;38480;52.724;6.436;2024-03-07T01:39:54;124.87;;;48.27;;
52586;SDS011;38480;52.724;6.436;2024-03-07T01:42:20;105.53;;;44.20;;
52586;SDS011;38480;52.724;6.436;2024-03-07T01:44:46;101.70;;;43.97;;
52586;SDS011;38480;52.724;6.436;2024-03-07T01:47:12;96.27;;;41.50;;
52586;SDS011;38480;52.724;6.436;2024-03-07T01:49:39;115.27;;;45.87;;
52586;SDS011;38480;52.724;6.436;2024-03-07T01:52:05;112.90;;;45.20;;
52586;SDS011;38480;52.724;6.436;2024-03-07T01:54:32;126.47;;;45.23;;
52586;SDS011;38480;52.724;6.436;2024-03-07T01:56:58;88.83;;;38.67;;
52586;SDS011;38480;52.724;6.436;2024-03-07T01:59:24;95.77;;;41.30;;
52586;SDS011;38480;52.724;6.436;2024-03-07T02:01:52;85.80;;;41.33;;
52586;SDS011;38480;52.724;6.436;2024-03-07T02:04:18;121.10;;;44.70;;
52586;SDS011;38480;52.724;6.436;2024-03-07T02:06:44;94.57;;;39.53;;
52586;SDS011;38480;52.724;6.436;2024-03-07T02:09:10;99.80;;;40.30;;
52586;SDS011;38480;52.724;6.436;2024-03-07T02:11:36;73.10;;;36.20;;
52586;SDS011;38480;52.724;6.436;2024-03-07T02:14:02;76.73;;;38.37;;
52586;SDS011;38480;52.724;6.436;2024-03-07T02:16:29;93.20;;;40.33;;
52586;SDS011;38480;52.724;6.436;2024-03-07T02:18:55;84.53;;;37.03;;
52586;SDS011;38480;52.724;6.436;2024-03-07T02:21:21;77.33;;;37.07;;
52586;SDS011;38480;52.724;6.436;2024-03-07T02:23:48;86.77;;;37.30;;
52586;SDS011;38480;52.724;6.436;2024-03-07T02:26:14;81.93;;;37.77;;
52586;SDS011;38480;52.724;6.436;2024-03-07T02:28:40;88.37;;;38.90;;
52586;SDS011;38480;52.724;6.436;2024-03-07T02:31:06;96.57;;;41.13;;
52586;SDS011;38480;52.724;6.436;2024-03-07T02:33:32;81.70;;;38.03;;
52586;SDS011;38480;52.724;6.436;2024-03-07T02:35:58;87.13;;;38.07;;
52586;SDS011;38480;52.724;6.436;2024-03-07T02:38:24;104.50;;;41.20;;
52586;SDS011;38480;52.724;6.436;2024-03-07T02:40:50;105.73;;;42.60;;
52586;SDS011;38480;52.724;6.436;2024-03-07T02:43:16;109.87;;;41.40;;
52586;SDS011;38480;52.724;6.436;2024-03-07T02:45:43;98.73;;;38.10;;
52586;SDS011;38480;52.724;6.436;2024-03-07T02:48:09;107.63;;;41.10;;
52586;SDS011;38480;52.724;6.436;2024-03-07T02:50:37;86.67;;;36.70;;
52586;SDS011;38480;52.724;6.436;2024-03-07T02:53:04;97.80;;;39.77;;
52586;SDS011;38480;52.724;6.436;2024-03-07T02:55:31;79.60;;;35.53;;
52586;SDS011;38480;52.724;6.436;2024-03-07T02:57:57;80.77;;;36.07;;
52586;SDS011;38480;52.724;6.436;2024-03-07T03:00:24;93.27;;;40.00;;
52586;SDS011;38480;52.724;6.436;2024-03-07T03:02:55;90.20;;;40.07;;
52586;SDS011;38480;52.724;6.436;2024-03-07T03:05:21;96.03;;;35.73;;
52586;SDS011;38480;52.724;6.436;2024-03-07T03:07:47;92.30;;;38.40;;
52586;SDS011;38480;52.724;6.436;2024-03-07T03:10:20;95.63;;;38.30;;
52586;SDS011;38480;52.724;6.436;2024-03-07T03:12:49;85.50;;;37.70;;
52586;SDS011;38480;52.724;6.436;2024-03-07T03:15:15;87.10;;;36.53;;
52586;SDS011;38480;52.724;6.436;2024-03-07T03:17:45;113.27;;;41.63;;
52586;SDS011;38480;52.724;6.436;2024-03-07T03:20:11;106.20;;;40.80;;
52586;SDS011;38480;52.724;6.436;2024-03-07T03:23:01;91.70;;;35.50;;
52586;SDS011;38480;52.724;6.436;2024-03-07T03:25:30;79.83;;;35.63;;
52586;SDS011;38480;52.724;6.436;2024-03-07T03:28:00;97.57;;;37.97;;
52586;SDS011;38480;52.724;6.436;2024-03-07T03:30:26;88.97;;;37.57;;
52586;SDS011;38480;52.724;6.436;2024-03-07T03:32:52;105.60;;;39.37;;
52586;SDS011;38480;52.724;6.436;2024-03-07T03:35:18;97.67;;;37.30;;
52586;SDS011;38480;52.724;6.436;2024-03-07T03:37:45;80.07;;;34.77;;
52586;SDS011;38480;52.724;6.436;2024-03-07T03:40:11;90.10;;;36.43;;
52586;SDS011;38480;52.724;6.436;2024-03-07T03:42:40;96.73;;;36.00;;
52586;SDS011;38480;52.724;6.436;2024-03-07T03:45:07;102.67;;;37.93;;
52586;SDS011;38480;52.724;6.436;2024-03-07T03:47:41;90.33;;;35.37;;
52586;SDS011;38480;52.724;6.436;2024-03-07T03:50:08;106.67;;;39.53;;
52586;SDS011;38480;52.724;6.436;2024-03-07T03:52:34;107.03;;;39.53;;
52586;SDS011;38480;52.724;6.436;2024-03-07T03:55:00;109.57;;;38.97;;
52586;SDS011;38480;52.724;6.436;2024-03-07T03:57:27;90.70;;;35.77;;
52586;SDS011;38480;52.724;6.436;2024-03-07T03:59:53;101.07;;;37.77;;
52586;SDS011;38480;52.724;6.436;2024-03-07T04:02:20;104.80;;;38.27;;
52586;SDS011;38480;52.724;6.436;2024-03-07T04:04:47;105.70;;;38.60;;
52586;SDS011;38480;52.724;6.436;2024-03-07T04:07:13;119.40;;;38.40;;
52586;SDS011;38480;52.724;6.436;2024-03-07T04:09:41;100.07;;;37.97;;
52586;SDS011;38480;52.724;6.436;2024-03-07T04:12:07;96.23;;;34.90;;
52586;SDS011;38480;52.724;6.436;2024-03-07T04:14:37;101.27;;;37.43;;
52586;SDS011;38480;52.724;6.436;2024-03-07T04:17:03;88.03;;;34.20;;
52586;SDS011;38480;52.724;6.436;2024-03-07T04:19:31;92.03;;;35.30;;
52586;SDS011;38480;52.724;6.436;2024-03-07T04:21:58;112.77;;;38.50;;
52586;SDS011;38480;52.724;6.436;2024-03-07T04:24:24;113.23;;;39.00;;
52586;SDS011;38480;52.724;6.436;2024-03-07T04:26:50;94.90;;;35.73;;
52586;SDS011;38480;52.724;6.436;2024-03-07T04:29:18;96.17;;;37.90;;
52586;SDS011;38480;52.724;6.436;2024-03-07T04:31:44;88.80;;;34.40;;
52586;SDS011;38480;52.724;6.436;2024-03-07T04:34:10;105.87;;;39.53;;
52586;SDS011;38480;52.724;6.436;2024-03-07T04:36:36;102.20;;;36.93;;
52586;SDS011;38480;52.724;6.436;2024-03-07T04:39:03;115.30;;;41.47;;
52586;SDS011;38480;52.724;6.436;2024-03-07T04:41:29;101.37;;;38.93;;
52586;SDS011;38480;52.724;6.436;2024-03-07T04:43:55;102.30;;;38.53;;
52586;SDS011;38480;52.724;6.436;2024-03-07T04:46:22;114.23;;;39.73;;
52586;SDS011;38480;52.724;6.436;2024-03-07T04:48:48;124.37;;;43.33;;
52586;SDS011;38480;52.724;6.436;2024-03-07T04:51:14;89.00;;;36.40;;
52586;SDS011;38480;52.724;6.436;2024-03-07T04:53:40;104.43;;;39.70;;
52586;SDS011;38480;52.724;6.436;2024-03-07T04:56:07;108.70;;;39.23;;
52586;SDS011;38480;52.724;6.436;2024-03-07T04:58:34;124.00;;;42.47;;
52586;SDS011;38480;52.724;6.436;2024-03-07T05:01:01;112.47;;;38.30;;
52586;SDS011;38480;52.724;6.436;2024-03-07T05:03:27;117.43;;;40.63;;
52586;SDS011;38480;52.724;6.436;2024-03-07T05:05:53;114.20;;;41.27;;
52586;SDS011;38480;52.724;6.436;2024-03-07T05:08:19;104.83;;;38.23;;
52586;SDS011;38480;52.724;6.436;2024-03-07T05:10:45;101.13;;;37.20;;
52586;SDS011;38480;52.724;6.436;2024-03-07T05:13:11;110.83;;;39.40;;
52586;SDS011;38480;52.724;6.436;2024-03-07T05:15:37;111.40;;;39.50;;
52586;SDS011;38480;52.724;6.436;2024-03-07T05:18:03;105.00;;;38.07;;
52586;SDS011;38480;52.724;6.436;2024-03-07T05:20:29;124.27;;;40.93;;
52586;SDS011;38480;52.724;6.436;2024-03-07T05:22:56;97.43;;;37.37;;
52586;SDS011;38480;52.724;6.436;2024-03-07T05:25:24;89.00;;;34.27;;
52586;SDS011;38480;52.724;6.436;2024-03-07T05:27:50;123.43;;;41.70;;
52586;SDS011;38480;52.724;6.436;2024-03-07T05:30:16;104.87;;;40.93;;
52586;SDS011;38480;52.724;6.436;2024-03-07T05:32:42;104.93;;;38.30;;
52586;SDS011;38480;52.724;6.436;2024-03-07T05:35:08;99.63;;;37.87;;
52586;SDS011;38480;52.724;6.436;2024-03-07T05:37:36;101.87;;;38.20;;
52586;SDS011;38480;52.724;6.436;2024-03-07T05:40:02;94.07;;;37.57;;
52586;SDS011;38480;52.724;6.436;2024-03-07T05:42:28;92.63;;;35.43;;
52586;SDS011;38480;52.724;6.436;2024-03-07T05:44:54;72.53;;;32.57;;
52586;SDS011;38480;52.724;6.436;2024-03-07T05:47:20;86.27;;;36.27;;
52586;SDS011;38480;52.724;6.436;2024-03-07T05:49:46;88.07;;;34.07;;
52586;SDS011;38480;52.724;6.436;2024-03-07T05:52:13;91.37;;;33.70;;
52586;SDS011;38480;52.724;6.436;2024-03-07T05:54:39;85.03;;;34.67;;
52586;SDS011;38480;52.724;6.436;2024-03-07T05:57:05;85.03;;;35.30;;
52586;SDS011;38480;52.724;6.436;2024-03-07T05:59:32;86.57;;;34.53;;
52586;SDS011;38480;52.724;6.436;2024-03-07T06:01:58;87.97;;;34.47;;
52586;SDS011;38480;52.724;6.436;2024-03-07T06:04:24;91.27;;;34.87;;
52586;SDS011;38480;52.724;6.436;2024-03-07T06:06:50;82.27;;;31.57;;
52586;SDS011;38480;52.724;6.436;2024-03-07T06:09:16;89.30;;;33.97;;
52586;SDS011;38480;52.724;6.436;2024-03-07T06:11:46;82.70;;;32.33;;
52586;SDS011;38480;52.724;6.436;2024-03-07T06:14:12;86.20;;;35.00;;
52586;SDS011;38480;52.724;6.436;2024-03-07T06:16:39;88.83;;;34.37;;
52586;SDS011;38480;52.724;6.436;2024-03-07T06:19:05;82.60;;;32.40;;
52586;SDS011;38480;52.724;6.436;2024-03-07T06:21:35;87.17;;;34.50;;
52586;SDS011;38480;52.724;6.436;2024-03-07T06:24:01;87.70;;;36.37;;
52586;SDS011;38480;52.724;6.436;2024-03-07T06:26:32;84.97;;;33.53;;
52586;SDS011;38480;52.724;6.436;2024-03-07T06:29:13;79.40;;;34.30;;
52586;SDS011;38480;52.724;6.436;2024-03-07T06:31:42;77.30;;;33.83;;
52586;SDS011;38480;52.724;6.436;2024-03-07T06:34:08;75.50;;;33.97;;
52586;SDS011;38480;52.724;6.436;2024-03-07T06:36:34;86.57;;;35.43;;
52586;SDS011;38480;52.724;6.436;2024-03-07T06:39:01;76.87;;;32.37;;
52586;SDS011;38480;52.724;6.436;2024-03-07T06:41:30;87.63;;;34.73;;
52586;SDS011;38480;52.724;6.436;2024-03-07T06:43:56;87.77;;;36.10;;
52586;SDS011;38480;52.724;6.436;2024-03-07T06:46:22;70.50;;;32.20;;
52586;SDS011;38480;52.724;6.436;2024-03-07T06:48:49;85.57;;;34.97;;
52586;SDS011;38480;52.724;6.436;2024-03-07T06:51:16;81.17;;;31.70;;
52586;SDS011;38480;52.724;6.436;2024-03-07T06:53:45;70.77;;;32.37;;
52586;SDS011;38480;52.724;6.436;2024-03-07T06:56:15;84.63;;;33.53;;
52586;SDS011;38480;52.724;6.436;2024-03-07T06:58:41;82.97;;;35.77;;
52586;SDS011;38480;52.724;6.436;2024-03-07T07:01:08;104.47;;;39.30;;
52586;SDS011;38480;52.724;6.436;2024-03-07T07:03:36;231.90;;;49.87;;
52586;SDS011;38480;52.724;6.436;2024-03-07T07:06:02;95.87;;;41.50;;
52586;SDS011;38480;52.724;6.436;2024-03-07T07:08:31;89.63;;;36.30;;
52586;SDS011;38480;52.724;6.436;2024-03-07T07:10:57;95.97;;;36.03;;
52586;SDS011;38480;52.724;6.436;2024-03-07T07:13:23;90.80;;;37.37;;
52586;SDS011;38480;52.724;6.436;2024-03-07T07:15:49;96.33;;;38.17;;
52586;SDS011;38480;52.724;6.436;2024-03-07T07:18:16;73.57;;;32.63;;
52586;SDS011;38480;52.724;6.436;2024-03-07T07:20:42;90.97;;;38.23;;
52586;SDS011;38480;52.724;6.436;2024-03-07T07:23:08;140.77;;;43.67;;
52586;SDS011;38480;52.724;6.436;2024-03-07T07:25:34;85.93;;;35.63;;
52586;SDS011;38480;52.724;6.436;2024-03-07T07:28:00;107.23;;;43.67;;
52586;SDS011;38480;52.724;6.436;2024-03-07T07:30:29;97.10;;;40.10;;
52586;SDS011;38480;52.724;6.436;2024-03-07T07:32:55;97.83;;;38.07;;
52586;SDS011;38480;52.724;6.436;2024-03-07T07:35:22;82.83;;;37.00;;
52586;SDS011;38480;52.724;6.436;2024-03-07T07:37:48;91.10;;;38.10;;
52586;SDS011;38480;52.724;6.436;2024-03-07T07:40:16;94.53;;;39.80;;
52586;SDS011;38480;52.724;6.436;2024-03-07T07:42:47;88.87;;;38.90;;
52586;SDS011;38480;52.724;6.436;2024-03-07T07:45:14;101.00;;;39.13;;
52586;SDS011;38480;52.724;6.436;2024-03-07T07:47:50;101.13;;;39.27;;
52586;SDS011;38480;52.724;6.436;2024-03-07T07:50:17;111.63;;;43.37;;
52586;SDS011;38480;52.724;6.436;2024-03-07T07:52:47;90.70;;;39.43;;
52586;SDS011;38480;52.724;6.436;2024-03-07T07:55:15;91.17;;;38.33;;
52586;SDS011;38480;52.724;6.436;2024-03-07T07:57:45;92.77;;;39.33;;
52586;SDS011;38480;52.724;6.436;2024-03-07T08:00:15;82.57;;;37.30;;
52586;SDS011;38480;52.724;6.436;2024-03-07T08:02:51;83.33;;;34.60;;
52586;SDS011;38480;52.724;6.436;2024-03-07T08:05:18;82.07;;;38.77;;
52586;SDS011;38480;52.724;6.436;2024-03-07T08:07:45;79.27;;;37.90;;
52586;SDS011;38480;52.724;6.436;2024-03-07T08:10:13;83.40;;;38.40;;
52586;SDS011;38480;52.724;6.436;2024-03-07T08:12:39;81.87;;;38.50;;
52586;SDS011;38480;52.724;6.436;2024-03-07T08:15:08;71.83;;;35.40;;
52586;SDS011;38480;52.724;6.436;2024-03-07T08:17:38;109.27;;;42.23;;
52586;SDS011;38480;52.724;6.436;2024-03-07T08:20:05;86.57;;;37.90;;
52586;SDS011;38480;52.724;6.436;2024-03-07T08:22:35;88.60;;;39.37;;
52586;SDS011;38480;52.724;6.436;2024-03-07T08:25:01;78.43;;;36.17;;
52586;SDS011;38480;52.724;6.436;2024-03-07T08:27:34;66.73;;;35.83;;
52586;SDS011;38480;52.724;6.436;2024-03-07T08:30:00;87.87;;;41.53;;
52586;SDS011;38480;52.724;6.436;2024-03-07T08:32:26;77.83;;;37.03;;
52586;SDS011;38480;52.724;6.436;2024-03-07T08:34:52;73.30;;;37.57;;
52586;SDS011;38480;52.724;6.436;2024-03-07T08:37:18;87.50;;;40.20;;
52586;SDS011;38480;52.724;6.436;2024-03-07T08:39:46;69.70;;;37.43;;
52586;SDS011;38480;52.724;6.436;2024-03-07T08:42:12;73.90;;;37.37;;
52586;SDS011;38480;52.724;6.436;2024-03-07T08:44:38;65.77;;;36.70;;
52586;SDS011;38480;52.724;6.436;2024-03-07T08:47:05;52.60;;;32.57;;
52586;SDS011;38480;52.724;6.436;2024-03-07T08:49:31;78.10;;;39.93;;
52586;SDS011;38480;52.724;6.436;2024-03-07T08:51:57;84.30;;;42.37;;
52586;SDS011;38480;52.724;6.436;2024-03-07T08:54:23;75.40;;;40.70;;
52586;SDS011;38480;52.724;6.436;2024-03-07T08:56:49;75.47;;;41.70;;
52586;SDS011;38480;52.724;6.436;2024-03-07T08:59:15;86.10;;;43.63;;
52586;SDS011;38480;52.724;6.436;2024-03-07T09:01:43;77.57;;;41.57;;
52586;SDS011;38480;52.724;6.436;2024-03-07T09:04:09;66.33;;;39.20;;
52586;SDS011;38480;52.724;6.436;2024-03-07T09:06:36;75.10;;;40.63;;
52586;SDS011;38480;52.724;6.436;2024-03-07T09:09:03;80.70;;;44.23;;
52586;SDS011;38480;52.724;6.436;2024-03-07T09:11:29;60.13;;;37.47;;
52586;SDS011;38480;52.724;6.436;2024-03-07T09:13:55;71.03;;;39.37;;
52586;SDS011;38480;52.724;6.436;2024-03-07T09:16:21;73.30;;;38.40;;
52586;SDS011;38480;52.724;6.436;2024-03-07T09:18:47;66.37;;;37.13;;
52586;SDS011;38480;52.724;6.436;2024-03-07T09:21:13;61.47;;;36.83;;
52586;SDS011;38480;52.724;6.436;2024-03-07T09:23:40;65.63;;;36.60;;
52586;SDS011;38480;52.724;6.436;2024-03-07T09:26:06;73.53;;;38.97;;
52586;SDS011;38480;52.724;6.436;2024-03-07T09:28:33;69.77;;;39.77;;
52586;SDS011;38480;52.724;6.436;2024-03-07T09:30:59;64.53;;;36.17;;
52586;SDS011;38480;52.724;6.436;2024-03-07T09:33:25;63.23;;;31.93;;
52586;SDS011;38480;52.724;6.436;2024-03-07T09:35:51;62.43;;;31.20;;
52586;SDS011;38480;52.724;6.436;2024-03-07T09:38:18;62.43;;;31.67;;
52586;SDS011;38480;52.724;6.436;2024-03-07T09:40:44;66.90;;;33.63;;
52586;SDS011;38480;52.724;6.436;2024-03-07T09:43:11;70.23;;;36.77;;
52586;SDS011;38480;52.724;6.436;2024-03-07T09:45:38;61.77;;;33.40;;
52586;SDS011;38480;52.724;6.436;2024-03-07T09:48:05;64.30;;;32.63;;
52586;SDS011;38480;52.724;6.436;2024-03-07T09:50:34;61.47;;;34.17;;
52586;SDS011;38480;52.724;6.436;2024-03-07T09:53:01;57.27;;;32.97;;
52586;SDS011;38480;52.724;6.436;2024-03-07T09:55:28;60.83;;;32.50;;
52586;SDS011;38480;52.724;6.436;2024-03-07T09:57:54;76.47;;;33.10;;
52586;SDS011;38480;52.724;6.436;2024-03-07T10:00:21;60.77;;;30.57;;
52586;SDS011;38480;52.724;6.436;2024-03-07T10:02:48;55.43;;;31.57;;
52586;SDS011;38480;52.724;6.436;2024-03-07T10:05:15;51.97;;;29.30;;
52586;SDS011;38480;52.724;6.436;2024-03-07T10:07:43;49.37;;;28.83;;
52586;SDS011;38480;52.724;6.436;2024-03-07T10:10:10;48.13;;;27.20;;
52586;SDS011;38480;52.724;6.436;2024-03-07T10:12:37;45.80;;;27.07;;
52586;SDS011;38480;52.724;6.436;2024-03-07T10:15:04;44.73;;;26.20;;
52586;SDS011;38480;52.724;6.436;2024-03-07T10:17:30;42.73;;;25.47;;
52586;SDS011;38480;52.724;6.436;2024-03-07T10:20:00;41.37;;;26.17;;
52586;SDS011;38480;52.724;6.436;2024-03-07T10:22:26;39.70;;;24.40;;
52586;SDS011;38480;52.724;6.436;2024-03-07T10:24:53;40.87;;;23.67;;
52586;SDS011;38480;52.724;6.436;2024-03-07T10:27:20;41.77;;;25.27;;
52586;SDS011;38480;52.724;6.436;2024-03-07T10:29:46;39.90;;;24.57;;
52586;SDS011;38480;52.724;6.436;2024-03-07T10:32:13;38.80;;;24.07;;
52586;SDS011;38480;52.724;6.436;2024-03-07T10:34:39;36.13;;;23.53;;
52586;SDS011;38480;52.724;6.436;2024-03-07T10:37:11;40.67;;;23.80;;
52586;SDS011;38480;52.724;6.436;2024-03-07T10:39:40;31.77;;;19.73;;
52586;SDS011;38480;52.724;6.436;2024-03-07T10:42:07;34.57;;;21.80;;
52586;SDS011;38480;52.724;6.436;2024-03-07T10:44:36;30.87;;;21.27;;
52586;SDS011;38480;52.724;6.436;2024-03-07T10:47:06;29.10;;;19.13;;
52586;SDS011;38480;52.724;6.436;2024-03-07T10:49:34;31.13;;;19.17;;
52586;SDS011;38480;52.724;6.436;2024-03-07T10:52:03;27.10;;;17.80;;
52586;SDS011;38480;52.724;6.436;2024-03-07T10:54:33;28.97;;;19.20;;
52586;SDS011;38480;52.724;6.436;2024-03-07T10:59:53;26.87;;;18.17;;
52586;SDS011;38480;52.724;6.436;2024-03-07T11:04:55;24.00;;;16.67;;
52586;SDS011;38480;52.724;6.436;2024-03-07T11:07:22;24.30;;;16.87;;
52586;SDS011;38480;52.724;6.436;2024-03-07T11:09:51;28.27;;;18.30;;
52586;SDS011;38480;52.724;6.436;2024-03-07T11:12:26;30.43;;;20.30;;
52586;SDS011;38480;52.724;6.436;2024-03-07T11:14:53;26.70;;;17.87;;
52586;SDS011;38480;52.724;6.436;2024-03-07T11:17:21;27.87;;;19.50;;
52586;SDS011;38480;52.724;6.436;2024-03-07T11:19:47;27.07;;;18.23;;
52586;SDS011;38480;52.724;6.436;2024-03-07T11:22:32;25.50;;;17.00;;
52586;SDS011;38480;52.724;6.436;2024-03-07T11:25:02;29.13;;;18.60;;
52586;SDS011;38480;52.724;6.436;2024-03-07T11:27:32;30.88;;;18.65;;
52586;SDS011;38480;52.724;6.436;2024-03-07T11:30:04;25.13;;;17.07;;
52586;SDS011;38480;52.724;6.436;2024-03-07T11:34:58;26.80;;;17.03;;
52586;SDS011;38480;52.724;6.436;2024-03-07T11:37:38;24.87;;;16.87;;
52586;SDS011;38480;52.724;6.436;2024-03-07T11:40:58;22.73;;;16.60;;
52586;SDS011;38480;52.724;6.436;2024-03-07T11:42:57;25.53;;;17.00;;
52586;SDS011;38480;52.724;6.436;2024-03-07T11:45:25;26.57;;;17.77;;
52586;SDS011;38480;52.724;6.436;2024-03-07T11:47:51;25.60;;;16.77;;
52586;SDS011;38480;52.724;6.436;2024-03-07T11:50:36;25.27;;;16.30;;
52586;SDS011;38480;52.724;6.436;2024-03-07T11:53:04;23.37;;;15.07;;
52586;SDS011;38480;52.724;6.436;2024-03-07T11:55:31;25.20;;;15.83;;
52586;SDS011;38480;52.724;6.436;2024-03-07T11:58:07;23.47;;;15.37;;
52586;SDS011;38480;52.724;6.436;2024-03-07T12:00:33;22.00;;;15.63;;
52586;SDS011;38480;52.724;6.436;2024-03-07T12:03:00;21.83;;;16.03;;
52586;SDS011;38480;52.724;6.436;2024-03-07T12:05:26;22.13;;;15.30;;
52586;SDS011;38480;52.724;6.436;2024-03-07T12:07:52;23.70;;;15.87;;
52586;SDS011;38480;52.724;6.436;2024-03-07T12:10:18;23.47;;;16.53;;
52586;SDS011;38480;52.724;6.436;2024-03-07T12:12:49;23.80;;;17.83;;
52586;SDS011;38480;52.724;6.436;2024-03-07T12:15:15;25.37;;;16.50;;
52586;SDS011;38480;52.724;6.436;2024-03-07T12:17:45;24.10;;;15.97;;
52586;SDS011;38480;52.724;6.436;2024-03-07T12:20:12;25.67;;;16.70;;
52586;SDS011;38480;52.724;6.436;2024-03-07T12:22:54;21.97;;;15.03;;
52586;SDS011;38480;52.724;6.436;2024-03-07T12:25:21;24.27;;;16.90;;
52586;SDS011;38480;52.724;6.436;2024-03-07T12:28:05;24.57;;;16.03;;
52586;SDS011;38480;52.724;6.436;2024-03-07T12:30:34;27.50;;;16.80;;
52586;SDS011;38480;52.724;6.436;2024-03-07T12:33:01;23.50;;;16.23;;
52586;SDS011;38480;52.724;6.436;2024-03-07T12:35:32;25.50;;;16.10;;
52586;SDS011;38480;52.724;6.436;2024-03-07T12:37:58;25.10;;;16.93;;
52586;SDS011;38480;52.724;6.436;2024-03-07T12:40:25;26.57;;;16.67;;
52586;SDS011;38480;52.724;6.436;2024-03-07T12:42:54;25.43;;;16.93;;
52586;SDS011;38480;52.724;6.436;2024-03-07T12:45:20;25.57;;;17.67;;
52586;SDS011;38480;52.724;6.436;2024-03-07T12:47:46;24.97;;;16.27;;
52586;SDS011;38480;52.724;6.436;2024-03-07T12:50:17;21.17;;;14.00;;
52586;SDS011;38480;52.724;6.436;2024-03-07T12:52:45;20.40;;;13.13;;
52586;SDS011;38480;52.724;6.436;2024-03-07T12:55:14;20.10;;;14.00;;
52586;SDS011;38480;52.724;6.436;2024-03-07T12:57:43;19.17;;;12.93;;
52586;SDS011;38480;52.724;6.436;2024-03-07T13:00:09;19.30;;;11.80;;
52586;SDS011;38480;52.724;6.436;2024-03-07T13:02:43;16.93;;;11.77;;
52586;SDS011;38480;52.724;6.436;2024-03-07T13:05:10;19.13;;;12.67;;
52586;SDS011;38480;52.724;6.436;2024-03-07T13:10:09;17.07;;;11.40;;
52586;SDS011;38480;52.724;6.436;2024-03-07T13:12:35;20.20;;;12.20;;
52586;SDS011;38480;52.724;6.436;2024-03-07T13:15:02;20.53;;;13.23;;
52586;SDS011;38480;52.724;6.436;2024-03-07T13:17:31;20.00;;;13.00;;
52586;SDS011;38480;52.724;6.436;2024-03-07T13:19:58;23.43;;;14.83;;
52586;SDS011;38480;52.724;6.436;2024-03-07T13:22:25;23.50;;;15.90;;
52586;SDS011;38480;52.724;6.436;2024-03-07T13:24:51;24.27;;;14.57;;
52586;SDS011;38480;52.724;6.436;2024-03-07T13:27:17;23.67;;;15.57;;
52586;SDS011;38480;52.724;6.436;2024-03-07T13:32:16;25.97;;;16.00;;
52586;SDS011;38480;52.724;6.436;2024-03-07T13:34:42;24.13;;;14.60;;
52586;SDS011;38480;52.724;6.436;2024-03-07T13:37:08;25.13;;;16.43;;
52586;SDS011;38480;52.724;6.436;2024-03-07T13:39:35;25.70;;;15.60;;
52586;SDS011;38480;52.724;6.436;2024-03-07T13:42:01;27.13;;;16.77;;
52586;SDS011;38480;52.724;6.436;2024-03-07T13:44:29;26.57;;;15.43;;
52586;SDS011;38480;52.724;6.436;2024-03-07T13:46:55;24.23;;;15.83;;
52586;SDS011;38480;52.724;6.436;2024-03-07T13:49:24;23.70;;;14.73;;
52586;SDS011;38480;52.724;6.436;2024-03-07T13:51:53;26.33;;;15.90;;
52586;SDS011;38480;52.724;6.436;2024-03-07T13:54:25;30.07;;;16.90;;
52586;SDS011;38480;52.724;6.436;2024-03-07T13:59:43;24.27;;;16.17;;
52586;SDS011;38480;52.724;6.436;2024-03-07T14:02:29;28.07;;;15.77;;
52586;SDS011;38480;52.724;6.436;2024-03-07T14:05:11;25.80;;;14.90;;
52586;SDS011;38480;52.724;6.436;2024-03-07T14:08:06;26.43;;;15.50;;
52586;SDS011;38480;52.724;6.436;2024-03-07T14:16:27;29.13;;;16.53;;
52586;SDS011;38480;52.724;6.436;2024-03-07T14:26:40;27.90;;;16.83;;
52586;SDS011;38480;52.724;6.436;2024-03-07T14:31:40;27.53;;;16.93;;
52586;SDS011;38480;52.724;6.436;2024-03-07T14:34:14;35.10;;;19.30;;
52586;SDS011;38480;52.724;6.436;2024-03-07T14:36:47;34.30;;;17.83;;
52586;SDS011;38480;52.724;6.436;2024-03-07T14:39:15;33.97;;;17.80;;
52586;SDS011;38480;52.724;6.436;2024-03-07T14:44:16;32.03;;;17.53;;
52586;SDS011;38480;52.724;6.436;2024-03-07T14:46:43;27.20;;;16.23;;
52586;SDS011;38480;52.724;6.436;2024-03-07T14:49:12;24.00;;;15.47;;
52586;SDS011;38480;52.724;6.436;2024-03-07T14:51:40;22.83;;;14.80;;
52586;SDS011;38480;52.724;6.436;2024-03-07T14:54:06;25.77;;;15.50;;
52586;SDS011;38480;52.724;6.436;2024-03-07T14:56:33;33.43;;;20.10;;